createdAt,value
2019-05-15T00:00:18.312Z,6.97
2019-05-15T00:02:48.924Z,6.68
2019-05-15T00:05:18.857Z,6.68
2019-05-15T00:07:48.405Z,6.61
2019-05-15T00:10:18.136Z,6.50
2019-05-15T00:12:48.673Z,6.47
2019-05-15T00:15:18.327Z,6.59
2019-05-15T00:17:48.524Z,6.50
2019-05-15T00:20:20.105Z,6.31
2019-05-15T00:22:48.416Z,6.07
2019-05-15T00:25:18.880Z,5.77
2019-05-15T00:27:49.277Z,5.77
2019-05-15T00:30:18.565Z,5.93
2019-05-15T00:32:48.791Z,5.78
2019-05-15T00:35:18.982Z,5.78
2019-05-15T00:37:49.240Z,5.82
2019-05-15T00:40:18.614Z,5.87
2019-05-15T00:42:48.778Z,5.73
2019-05-15T00:45:19.138Z,5.73
2019-05-15T00:47:48.645Z,5.74
2019-05-15T00:50:19.015Z,5.62
2019-05-15T00:52:48.536Z,5.53
2019-05-15T00:55:19.053Z,5.48
2019-05-15T00:57:49.729Z,5.57
2019-05-15T01:00:43.089Z,5.37
2019-05-15T01:03:13.148Z,5.34
2019-05-15T01:05:42.126Z,5.10
2019-05-15T01:08:11.027Z,4.80
2019-05-15T01:10:40.079Z,4.66
2019-05-15T01:13:08.976Z,4.80
2019-05-15T01:15:38.805Z,4.82
2019-05-15T01:18:09.289Z,4.59
2019-05-15T01:20:39.231Z,4.59
2019-05-15T01:23:09.031Z,4.59
2019-05-15T01:25:39.109Z,4.72
2019-05-15T01:28:09.494Z,4.70
2019-05-15T01:31:33.686Z,4.85
2019-05-15T01:34:02.505Z,4.70
2019-05-15T01:36:31.881Z,4.57
2019-05-15T01:39:00.925Z,4.84
2019-05-15T01:41:30.009Z,4.70
2019-05-15T01:43:59.781Z,4.43
2019-05-15T01:46:32.426Z,4.21
2019-05-15T01:49:01.429Z,4.05
2019-05-15T01:51:32.786Z,4.17
2019-05-15T01:54:03.455Z,4.50
2019-05-15T01:56:32.902Z,4.42
2019-05-15T01:59:02.574Z,4.29
2019-05-15T02:01:33.088Z,4.20
2019-05-15T02:04:05.722Z,3.88
2019-05-15T02:06:35.989Z,4.22
2019-05-15T02:09:08.411Z,4.19
2019-05-15T02:11:38.461Z,4.33
2019-05-15T02:14:08.324Z,4.44
2019-05-15T02:16:59.300Z,4.45
2019-05-15T02:19:28.780Z,4.27
2019-05-15T02:21:58.139Z,4.15
2019-05-15T02:24:28.427Z,3.99
2019-05-15T02:26:58.826Z,3.93
2019-05-15T02:29:28.604Z,3.93
2019-05-15T02:31:59.183Z,3.98
2019-05-15T02:34:30.026Z,4.02
2019-05-15T02:37:00.114Z,4.05
2019-05-15T02:39:29.549Z,3.66
2019-05-15T02:41:59.594Z,3.53
2019-05-15T02:44:29.154Z,3.63
2019-05-15T02:46:58.917Z,3.73
2019-05-15T02:49:30.094Z,3.50
2019-05-15T02:52:00.275Z,3.54
2019-05-15T02:54:30.173Z,3.81
2019-05-15T02:56:59.502Z,3.86
2019-05-15T02:59:29.179Z,3.78
2019-05-15T03:01:59.443Z,3.72
2019-05-15T03:04:29.293Z,3.56
2019-05-15T03:07:00.265Z,3.67
2019-05-15T03:09:29.929Z,3.55
2019-05-15T03:11:59.409Z,3.40
2019-05-15T03:14:29.545Z,3.25
2019-05-15T03:16:59.584Z,3.18
2019-05-15T03:19:29.828Z,3.34
2019-05-15T03:21:59.911Z,3.59
2019-05-15T03:24:29.147Z,3.32
2019-05-15T03:26:59.249Z,3.25
2019-05-15T03:29:29.330Z,2.77
2019-05-15T03:32:15.354Z,2.77
2019-05-15T03:34:37.434Z,3.04
2019-05-15T03:37:03.336Z,3.04
2019-05-15T03:39:30.797Z,3.29
2019-05-15T03:42:00.066Z,3.40
2019-05-15T03:44:28.957Z,3.37
2019-05-15T03:46:59.622Z,3.40
2019-05-15T03:49:29.509Z,3.27
2019-05-15T03:51:59.003Z,2.87
2019-05-15T03:54:29.509Z,2.87
2019-05-15T03:56:58.598Z,2.61
2019-05-15T03:59:29.424Z,2.68
2019-05-15T04:01:59.906Z,2.51
2019-05-15T04:04:29.799Z,2.78
2019-05-15T04:06:59.795Z,2.82
2019-05-15T04:09:29.567Z,2.90
2019-05-15T04:12:00.031Z,2.83
2019-05-15T04:14:29.754Z,2.91
2019-05-15T04:16:59.603Z,3.04
2019-05-15T04:19:30.291Z,3.11
2019-05-15T04:22:00.961Z,3.40
2019-05-15T04:24:32.878Z,3.49
2019-05-15T04:27:06.239Z,3.45
2019-05-15T04:29:33.884Z,3.43
2019-05-15T04:32:06.034Z,3.38
2019-05-15T04:34:41.718Z,3.85
2019-05-15T04:37:09.992Z,5.55
2019-05-15T04:39:39.980Z,7.71
2019-05-15T04:42:09.587Z,9.80
2019-05-15T04:44:39.543Z,11.31
2019-05-15T04:47:09.681Z,12.93
2019-05-15T04:49:40.566Z,14.08
2019-05-15T04:52:10.398Z,15.59
2019-05-15T04:54:40.207Z,15.59
2019-05-15T04:57:09.874Z,17.21
2019-05-15T04:59:39.494Z,17.21
2019-05-15T05:02:17.190Z,18.35
2019-05-15T05:04:39.795Z,18.56
2019-05-15T05:07:09.595Z,19.76
2019-05-15T05:09:38.993Z,21.10
2019-05-15T05:12:08.578Z,22.49
2019-05-15T05:14:39.115Z,23.67
2019-05-15T05:17:09.140Z,23.67
2019-05-15T05:19:40.125Z,24.75
2019-05-15T05:22:10.299Z,24.92
2019-05-15T05:24:40.490Z,24.92
2019-05-15T05:27:09.426Z,25.23
2019-05-15T05:29:38.727Z,25.23
2019-05-15T05:32:09.112Z,25.60
2019-05-15T05:34:39.178Z,25.63
2019-05-15T05:37:08.604Z,26.00
2019-05-15T05:39:39.509Z,25.92
2019-05-15T05:42:08.720Z,26.53
2019-05-15T05:44:38.650Z,26.53
2019-05-15T05:47:09.382Z,26.78
2019-05-15T06:00:44.509Z,29.83
2019-05-15T06:03:14.423Z,28.45
2019-05-15T06:05:43.506Z,28.75
2019-05-15T06:08:12.417Z,29.11
2019-05-15T06:10:41.493Z,30.55
2019-05-15T06:13:10.404Z,30.64
2019-05-15T06:15:39.540Z,30.61
2019-05-15T06:18:09.049Z,31.03
2019-05-15T06:20:39.493Z,30.39
2019-05-15T06:23:08.754Z,30.70
2019-05-15T06:25:39.063Z,31.41
2019-05-15T06:28:09.120Z,32.09
2019-05-15T06:30:38.720Z,30.58
2019-05-15T06:33:12.773Z,30.43
2019-05-15T06:35:39.537Z,31.59
2019-05-15T06:38:08.950Z,30.66
2019-05-15T06:40:39.525Z,30.77
2019-05-15T06:43:08.806Z,31.27
2019-05-15T06:45:38.152Z,31.27
2019-05-15T06:48:09.423Z,27.55
2019-05-15T06:50:40.438Z,29.99
2019-05-15T06:53:11.065Z,31.40
2019-05-15T06:55:39.945Z,29.51
2019-05-15T06:58:09.466Z,28.52
2019-05-15T07:00:39.265Z,28.80
2019-05-15T07:03:18.054Z,28.80
2019-05-15T07:05:40.489Z,27.83
2019-05-15T07:08:09.556Z,28.09
2019-05-15T07:10:38.578Z,28.09
2019-05-15T07:13:08.838Z,28.09
2019-05-15T07:15:38.532Z,29.63
2019-05-15T07:18:08.716Z,29.58
2019-05-15T07:20:39.108Z,29.58
2019-05-15T07:23:08.972Z,28.98
2019-05-15T07:25:39.109Z,29.14
2019-05-15T07:28:08.820Z,28.89
2019-05-15T07:30:41.236Z,31.23
2019-05-15T07:33:08.934Z,28.59
2019-05-15T07:35:38.433Z,29.39
2019-05-15T07:38:08.144Z,30.35
2019-05-15T07:40:38.518Z,28.51
2019-05-15T07:43:09.289Z,27.48
2019-05-15T07:45:43.456Z,27.93
2019-05-15T07:48:12.033Z,27.93
2019-05-15T07:50:41.547Z,26.28
2019-05-15T07:53:10.707Z,27.82
2019-05-15T07:55:39.502Z,28.28
2019-05-15T07:58:09.748Z,27.56
2019-05-15T08:00:39.555Z,27.56
2019-05-15T08:03:10.378Z,26.48
2019-05-15T08:05:54.963Z,24.65
2019-05-15T08:08:10.774Z,26.44
2019-05-15T08:10:39.700Z,26.44
2019-05-15T08:13:09.026Z,23.46
2019-05-15T08:15:38.272Z,23.18
2019-05-15T08:18:11.898Z,24.14
2019-05-15T08:20:38.721Z,26.97
2019-05-15T08:23:10.119Z,24.82
2019-05-15T08:25:39.047Z,26.71
2019-05-15T08:28:08.756Z,28.71
2019-05-15T08:30:38.726Z,27.92
2019-05-15T08:33:08.455Z,29.26
2019-05-15T08:35:38.667Z,27.20
2019-05-15T08:38:08.840Z,27.20
2019-05-15T08:40:41.046Z,24.74
2019-05-15T08:43:11.563Z,24.15
2019-05-15T08:45:40.157Z,25.09
2019-05-15T08:48:09.451Z,25.39
2019-05-15T08:50:39.102Z,24.60
2019-05-15T08:53:08.443Z,24.60
2019-05-15T09:00:29.440Z,24.71
2019-05-15T09:05:03.763Z,25.78
2019-05-15T09:07:19.323Z,24.27
2019-05-15T09:24:28.583Z,24.86
2019-05-15T09:32:38.957Z,20.09
2019-05-15T09:35:14.567Z,22.07
2019-05-15T09:39:41.507Z,26.14
2019-05-15T09:43:03.702Z,26.14
2019-05-15T09:45:32.949Z,27.26
2019-05-15T09:48:02.064Z,23.01
2019-05-15T09:50:31.154Z,23.26
2019-05-15T09:53:00.795Z,23.52
2019-05-15T09:55:29.987Z,22.75
2019-05-15T09:57:59.386Z,23.60
2019-05-15T10:00:29.295Z,25.39
2019-05-15T10:02:58.577Z,21.13
2019-05-15T10:05:28.116Z,21.13
2019-05-15T10:07:57.428Z,20.77
2019-05-15T10:10:28.381Z,21.32
2019-05-15T10:12:59.425Z,23.36
2019-05-15T10:15:28.413Z,24.75
2019-05-15T10:17:59.785Z,26.76
2019-05-15T10:20:29.114Z,26.76
2019-05-15T10:22:59.494Z,24.97
2019-05-15T10:25:28.603Z,21.00
2019-05-15T10:27:57.938Z,21.00
2019-05-15T10:30:28.433Z,20.75
2019-05-15T10:32:57.431Z,19.73
2019-05-15T10:35:29.198Z,20.18
2019-05-15T10:37:59.191Z,18.61
2019-05-15T10:40:29.579Z,20.32
2019-05-15T10:42:59.491Z,24.46
2019-05-15T10:45:29.508Z,24.94
2019-05-15T10:47:58.828Z,22.62
2019-05-15T10:50:28.442Z,19.77
2019-05-15T10:52:56.991Z,19.41
2019-05-15T10:55:26.096Z,19.48
2019-05-15T10:57:54.953Z,19.31
2019-05-15T11:00:24.047Z,21.59
2019-05-15T11:02:53.019Z,21.66
2019-05-15T11:05:37.388Z,21.08
2019-05-15T11:07:54.279Z,22.85
2019-05-15T11:10:23.286Z,25.02
2019-05-15T11:12:53.044Z,23.65
2019-05-15T11:15:22.292Z,22.62
2019-05-15T11:17:51.764Z,21.91
2019-05-15T11:20:21.601Z,21.13
2019-05-15T11:22:51.738Z,21.41
2019-05-15T11:26:49.969Z,22.54
2019-05-15T11:31:24.758Z,23.60
2019-05-15T11:39:29.005Z,20.99
2019-05-15T11:42:15.577Z,23.05
2019-05-15T11:44:48.412Z,18.35
2019-05-15T11:48:51.034Z,19.12
2019-05-15T11:52:04.070Z,17.77
2019-05-15T11:54:38.418Z,18.43
2019-05-15T12:02:31.927Z,19.70
2019-05-15T12:06:23.072Z,19.87
2019-05-15T12:08:53.851Z,19.09
2019-05-15T12:11:33.294Z,21.20
2019-05-15T12:13:53.699Z,22.30
2019-05-15T12:16:22.771Z,22.64
2019-05-15T12:18:51.964Z,20.19
2019-05-15T12:21:21.756Z,19.77
2019-05-15T12:23:51.076Z,23.23
2019-05-15T12:26:21.411Z,22.68
2019-05-15T12:28:51.644Z,20.89
2019-05-15T12:31:24.660Z,19.17
2019-05-15T12:33:53.562Z,17.70
2019-05-15T12:38:53.584Z,16.62
2019-05-15T13:00:38.515Z,23.77
2019-05-15T13:05:19.031Z,22.12
2019-05-15T13:17:23.895Z,19.98
2019-05-15T13:19:54.513Z,18.98
2019-05-15T13:22:25.019Z,17.79
2019-05-15T13:24:54.611Z,19.55
2019-05-15T13:27:25.112Z,20.02
2019-05-15T13:29:54.581Z,20.55
2019-05-15T13:32:23.442Z,20.37
2019-05-15T13:34:52.929Z,19.13
2019-05-15T13:37:27.289Z,18.60
2019-05-15T13:39:54.618Z,19.17
2019-05-15T13:42:24.560Z,19.01
2019-05-15T13:44:53.996Z,18.09
2019-05-15T13:47:23.036Z,17.34
2019-05-15T13:49:53.503Z,17.64
2019-05-15T13:52:24.202Z,17.86
2019-05-15T13:54:53.641Z,17.59
2019-05-15T13:57:22.597Z,18.21
2019-05-15T13:59:55.303Z,19.73
2019-05-15T14:03:55.270Z,19.73
2019-05-15T14:08:42.666Z,18.16
2019-05-15T14:37:08.732Z,19.33
2019-05-15T14:41:12.426Z,17.88
2019-05-15T14:44:40.633Z,17.47
2019-05-15T16:21:59.484Z,16.08
2019-05-15T16:24:29.316Z,17.10
2019-05-15T16:27:22.993Z,16.32
2019-05-15T16:29:52.454Z,16.32
2019-05-15T16:46:19.245Z,15.78
2019-05-15T16:50:10.792Z,15.50
2019-05-15T16:54:51.351Z,15.49
2019-05-15T16:57:38.593Z,14.81
2019-05-15T17:03:08.222Z,14.83
2019-05-15T17:04:32.989Z,14.41
2019-05-15T17:20:42.310Z,14.33
2019-05-15T17:23:11.679Z,14.12
2019-05-15T17:25:39.858Z,14.12
2019-05-15T17:28:09.285Z,14.55
2019-05-15T17:30:38.574Z,14.05
2019-05-15T17:33:07.753Z,14.93
2019-05-15T17:35:38.116Z,14.93
2019-05-15T17:38:07.131Z,14.65
2019-05-15T17:40:37.819Z,14.80
2019-05-15T17:43:09.413Z,14.54
2019-05-15T17:45:38.982Z,14.98
2019-05-15T17:48:11.866Z,15.17
2019-05-15T17:50:48.405Z,14.88
2019-05-15T17:53:12.521Z,14.03
2019-05-15T17:55:41.983Z,14.10
2019-05-15T17:58:11.682Z,14.03
2019-05-15T18:00:41.033Z,13.64
2019-05-15T18:08:19.721Z,13.40
2019-05-15T18:10:50.058Z,13.41
2019-05-15T18:13:19.443Z,13.10
2019-05-15T18:15:48.984Z,13.12
2019-05-15T18:18:18.766Z,12.82
2019-05-15T18:20:48.716Z,12.58
2019-05-15T18:23:18.990Z,12.54
2019-05-15T18:25:49.227Z,12.75
2019-05-15T18:28:18.849Z,12.55
2019-05-15T18:30:48.335Z,12.67
2019-05-15T18:33:18.545Z,12.53
2019-05-15T18:35:48.613Z,12.40
2019-05-15T18:38:20.322Z,11.71
2019-05-15T18:40:49.756Z,11.63
2019-05-15T18:43:19.316Z,11.87
2019-05-15T18:45:48.479Z,11.66
2019-05-15T18:48:18.422Z,11.68
2019-05-15T18:50:48.216Z,11.49
2019-05-15T18:53:17.761Z,11.29
2019-05-15T18:55:48.765Z,11.25
2019-05-15T18:58:18.982Z,11.42
2019-05-15T19:00:49.092Z,11.83
2019-05-15T19:03:22.605Z,11.70
2019-05-15T19:05:50.164Z,11.52
2019-05-15T19:08:19.306Z,11.58
2019-05-15T19:10:48.382Z,11.21
2019-05-15T19:13:17.266Z,11.43
2019-05-15T19:15:48.373Z,11.33
2019-05-15T19:18:18.651Z,11.46
2019-05-15T19:20:48.657Z,11.64
2019-05-15T19:23:18.161Z,11.76
2019-05-15T19:25:48.404Z,11.68
2019-05-15T19:28:18.858Z,11.01
2019-05-15T19:30:48.549Z,11.01
2019-05-15T19:33:22.524Z,11.35
2019-05-15T19:35:48.512Z,11.63
2019-05-15T19:38:18.599Z,12.05
2019-05-15T19:40:49.800Z,12.17
2019-05-15T19:43:19.151Z,12.03
2019-05-15T19:45:48.571Z,11.50
2019-05-15T19:48:19.923Z,11.85
2019-05-15T19:50:49.279Z,12.03
2019-05-15T19:53:19.748Z,12.11
2019-05-15T19:55:49.472Z,12.11
2019-05-15T19:58:19.043Z,11.98
2019-05-15T20:00:51.481Z,11.48
2019-05-15T20:03:21.580Z,11.51
2019-05-15T20:05:53.520Z,11.72
2019-05-15T20:08:24.920Z,11.87
2019-05-15T20:10:54.645Z,12.04
2019-05-15T20:13:23.775Z,12.04
2019-05-15T20:15:53.521Z,11.87
2019-05-15T20:18:23.307Z,11.55
2019-05-15T20:20:52.584Z,11.55
2019-05-15T20:23:20.725Z,11.79
2019-05-15T20:25:50.588Z,11.75
2019-05-15T20:28:19.289Z,11.71
2019-05-15T20:30:49.540Z,11.54
2019-05-15T20:33:18.795Z,11.11
2019-05-15T20:35:48.193Z,11.11
2019-05-15T20:38:17.534Z,10.69
2019-05-15T20:40:48.412Z,10.39
2019-05-15T20:43:18.522Z,10.47
2019-05-15T20:45:48.438Z,10.38
2019-05-15T20:48:18.543Z,10.11
2019-05-15T20:50:48.270Z,9.79
2019-05-15T20:53:18.234Z,9.79
2019-05-15T20:55:48.434Z,9.75
2019-05-15T20:58:19.454Z,9.58
2019-05-15T21:00:49.726Z,9.58
2019-05-15T21:03:19.486Z,9.56
2019-05-15T21:05:48.894Z,9.34
2019-05-15T21:08:18.536Z,9.34
2019-05-15T21:10:49.221Z,9.26
2019-05-15T21:13:19.338Z,9.24
2019-05-15T21:15:48.996Z,8.96
2019-05-15T21:18:20.230Z,8.77
2019-05-15T21:20:51.799Z,8.81
2019-05-15T21:23:21.721Z,8.73
2019-05-15T21:25:50.051Z,8.75
2019-05-15T21:28:19.192Z,8.81
2019-05-15T21:30:49.434Z,8.78
2019-05-15T21:33:18.762Z,8.36
2019-05-15T21:35:48.306Z,8.38
2019-05-15T21:38:18.382Z,8.31
2019-05-15T21:40:48.479Z,8.13
2019-05-15T21:43:17.926Z,8.09
2019-05-15T21:45:48.822Z,7.85
2019-05-15T21:48:18.473Z,7.88
2019-05-15T21:50:48.376Z,7.86
2019-05-15T21:53:17.615Z,7.86
2019-05-15T21:55:47.720Z,7.86
2019-05-15T21:58:18.684Z,7.56
2019-05-15T22:00:53.960Z,7.54
2019-05-15T22:03:25.645Z,7.74
2019-05-15T22:05:54.859Z,7.80
2019-05-15T22:08:24.112Z,7.80
2019-05-15T22:10:53.082Z,7.42
2019-05-15T22:13:22.505Z,7.30
2019-05-15T22:15:51.645Z,7.16
2019-05-15T22:18:20.959Z,7.05
2019-05-15T22:20:50.060Z,7.05
2019-05-15T22:23:19.493Z,7.25
2019-05-15T22:28:58.461Z,7.44
2019-05-15T22:31:28.580Z,7.12
2019-05-15T22:33:58.538Z,7.31
2019-05-15T22:36:28.069Z,7.69
2019-05-15T22:38:59.366Z,7.56
2019-05-15T22:41:28.618Z,7.42
2019-05-15T22:43:57.768Z,7.09
2019-05-15T22:46:28.873Z,7.09
2019-05-15T22:48:59.009Z,6.96
2019-05-15T22:51:28.972Z,7.21
2019-05-15T22:53:58.464Z,7.26
2019-05-15T22:56:29.609Z,7.46
2019-05-15T22:58:58.491Z,7.41
2019-05-15T23:01:27.667Z,7.49
2019-05-15T23:03:58.365Z,7.94
2019-05-15T23:06:28.250Z,7.74
2019-05-15T23:08:58.105Z,7.55
2019-05-15T23:11:29.738Z,7.38
2019-05-15T23:13:58.779Z,7.06
2019-05-15T23:16:28.375Z,7.23
2019-05-15T23:18:58.820Z,7.46
2019-05-15T23:21:30.053Z,7.46
2019-05-15T23:26:10.751Z,7.73
2019-05-15T23:28:38.897Z,7.81
2019-05-15T23:31:08.434Z,7.62
2019-05-15T23:33:38.799Z,7.76
2019-05-15T23:36:20.627Z,7.80
2019-05-15T23:38:51.450Z,7.78
2019-05-15T23:41:20.543Z,7.82
2019-05-15T23:43:49.560Z,7.82
2019-05-15T23:46:18.906Z,7.40
2019-05-15T23:48:48.534Z,7.40
2019-05-15T23:51:18.916Z,7.59
2019-05-15T23:53:48.461Z,7.58
2019-05-15T23:56:19.008Z,7.86
2019-05-15T23:58:47.868Z,7.38
